DLH6AL EDDM-EGLL
Flight info
| Callsign | DLH6AL |
|---|---|
| Flight time | 1h 26m |
| Altitude | 34000 |
| Route | GIVMI6Q GIVMI Y101 INBED DCT REKDI DCT LOHRE DCT ADKUV DCT DENUT L608 LOGAN |
| Aircraft | A20N/M-SDE2E3FGIJ1LORWXYZ/HB1 |
Departure
| Time | 2026-04-30 19:07 |
|---|---|
| Airport | Munich Airport (EDDM) |
Arrival
| Time | 2026-04-30 20:33 |
|---|---|
| Airport | London Heathrow Airport (EGLL) |
| Time | Latitude | Longitude | Altitude | Speed | Heading |
|---|---|---|---|---|---|
| 2026-04-30 18:41 | 48.35369 | 11.79766 | 1467 ft | 0 kts | 83° |
| 2026-04-30 18:56 | 48.35368 | 11.79755 | 1458 ft | 2 kts | 82° |
| 2026-04-30 18:56 | 48.35366 | 11.79730 | 1463 ft | 2 kts | 79° |
| 2026-04-30 18:57 | 48.35357 | 11.79683 | 1456 ft | 2 kts | 70° |
| 2026-04-30 18:57 | 48.35351 | 11.79660 | 1458 ft | 2 kts | 61° |
| 2026-04-30 18:57 | 48.35342 | 11.79640 | 1462 ft | 2 kts | 47° |
| 2026-04-30 18:58 | 48.35314 | 11.79617 | 1465 ft | 2 kts | 2° |
| 2026-04-30 18:58 | 48.35305 | 11.79617 | 1463 ft | 0 kts | 355° |
| 2026-04-30 19:00 | 48.35356 | 11.79553 | 1459 ft | 14 kts | 313° |
| 2026-04-30 19:01 | 48.35578 | 11.79429 | 1461 ft | 20 kts | 354° |
| 2026-04-30 19:01 | 48.35715 | 11.79408 | 1467 ft | 15 kts | 354° |
| 2026-04-30 19:02 | 48.35932 | 11.79353 | 1463 ft | 11 kts | 340° |
| 2026-04-30 19:02 | 48.35984 | 11.79336 | 1462 ft | 2 kts | 353° |
| 2026-04-30 19:03 | 48.36080 | 11.79179 | 1467 ft | 19 kts | 262° |
| 2026-04-30 19:03 | 48.36045 | 11.78718 | 1467 ft | 25 kts | 263° |
| 2026-04-30 19:04 | 48.36021 | 11.78404 | 1459 ft | 14 kts | 264° |
| 2026-04-30 19:04 | 48.35994 | 11.78048 | 1466 ft | 20 kts | 263° |
| 2026-04-30 19:05 | 48.35957 | 11.77571 | 1466 ft | 25 kts | 262° |
| 2026-04-30 19:05 | 48.35926 | 11.77102 | 1461 ft | 18 kts | 282° |
| 2026-04-30 19:06 | 48.36167 | 11.76952 | 1460 ft | 21 kts | 354° |
| 2026-04-30 19:06 | 48.36294 | 11.77019 | 1464 ft | 20 kts | 68° |
| 2026-04-30 19:06 | 48.36394 | 11.78265 | 1461 ft | 118 kts | 83° |
| 2026-04-30 19:07 | 48.36604 | 11.81283 | 2158 ft | 148 kts | 85° |
| 2026-04-30 19:07 | 48.36714 | 11.82792 | 2963 ft | 139 kts | 84° |
| 2026-04-30 19:08 | 48.36965 | 11.85810 | 4139 ft | 163 kts | 84° |
| 2026-04-30 19:08 | 48.37262 | 11.89575 | 5320 ft | 200 kts | 84° |
| 2026-04-30 19:08 | 48.37549 | 11.91742 | 5880 ft | 226 kts | 68° |
| 2026-04-30 19:09 | 48.40221 | 11.94814 | 7156 ft | 272 kts | 11° |
| 2026-04-30 19:09 | 48.42113 | 11.94572 | 8183 ft | 279 kts | 343° |
| 2026-04-30 19:09 | 48.43781 | 11.93043 | 9221 ft | 287 kts | 317° |
| 2026-04-30 19:10 | 48.46169 | 11.88089 | 11112 ft | 298 kts | 306° |
| 2026-04-30 19:10 | 48.48480 | 11.82785 | 12874 ft | 308 kts | 308° |
| 2026-04-30 19:11 | 48.49730 | 11.80056 | 13455 ft | 324 kts | 309° |
| 2026-04-30 19:11 | 48.52460 | 11.74239 | 14579 ft | 351 kts | 309° |
| 2026-04-30 19:11 | 48.53888 | 11.71208 | 15110 ft | 364 kts | 309° |
| 2026-04-30 19:12 | 48.55372 | 11.68050 | 15647 ft | 375 kts | 309° |
| 2026-04-30 19:12 | 48.56898 | 11.64794 | 16198 ft | 385 kts | 309° |
| 2026-04-30 19:12 | 48.58458 | 11.61458 | 16760 ft | 394 kts | 309° |
| 2026-04-30 19:13 | 48.61684 | 11.54554 | 17914 ft | 409 kts | 310° |
| 2026-04-30 19:13 | 48.65026 | 11.47388 | 18957 ft | 424 kts | 310° |
| 2026-04-30 19:13 | 48.66736 | 11.43714 | 19446 ft | 431 kts | 310° |
| 2026-04-30 19:14 | 48.68493 | 11.39991 | 19932 ft | 435 kts | 313° |
| 2026-04-30 19:14 | 48.70516 | 11.36602 | 20399 ft | 435 kts | 321° |
| 2026-04-30 19:14 | 48.72849 | 11.33702 | 20900 ft | 434 kts | 329° |
| 2026-04-30 19:14 | 48.75370 | 11.31163 | 21411 ft | 437 kts | 331° |
| 2026-04-30 19:15 | 48.77906 | 11.28600 | 21927 ft | 441 kts | 331° |
| 2026-04-30 19:15 | 48.83058 | 11.23446 | 22980 ft | 443 kts | 334° |
| 2026-04-30 19:15 | 48.85792 | 11.21372 | 23525 ft | 437 kts | 341° |
| 2026-04-30 19:16 | 48.88638 | 11.19817 | 24070 ft | 432 kts | 346° |
| 2026-04-30 19:16 | 48.91490 | 11.18391 | 24523 ft | 431 kts | 346° |
| 2026-04-30 19:16 | 48.97174 | 11.15493 | 25490 ft | 432 kts | 346° |
| 2026-04-30 19:17 | 49.00030 | 11.14035 | 25981 ft | 433 kts | 346° |
| 2026-04-30 19:17 | 49.05751 | 11.11065 | 26990 ft | 437 kts | 343° |
| 2026-04-30 19:17 | 49.08412 | 11.08864 | 27497 ft | 447 kts | 331° |
| 2026-04-30 19:18 | 49.12227 | 11.03323 | 28362 ft | 457 kts | 317° |
| 2026-04-30 19:18 | 49.14992 | 10.98405 | 29108 ft | 455 kts | 317° |
| 2026-04-30 19:18 | 49.17066 | 10.94838 | 29610 ft | 454 kts | 319° |
| 2026-04-30 19:19 | 49.19179 | 10.91343 | 30077 ft | 453 kts | 320° |
| 2026-04-30 19:19 | 49.21380 | 10.87794 | 30374 ft | 458 kts | 320° |
| 2026-04-30 19:19 | 49.25884 | 10.80642 | 30379 ft | 472 kts | 320° |
| 2026-04-30 19:20 | 49.30427 | 10.73402 | 30375 ft | 471 kts | 320° |
| 2026-04-30 19:21 | 49.37274 | 10.62451 | 30376 ft | 474 kts | 319° |
| 2026-04-30 19:22 | 49.46377 | 10.47815 | 30382 ft | 474 kts | 319° |
| 2026-04-30 19:23 | 49.60020 | 10.25728 | 30370 ft | 476 kts | 319° |
| 2026-04-30 19:24 | 49.66846 | 10.14599 | 30373 ft | 476 kts | 318° |
| 2026-04-30 19:25 | 49.78186 | 9.96008 | 30370 ft | 475 kts | 317° |
| 2026-04-30 19:26 | 49.87238 | 9.81075 | 30368 ft | 476 kts | 317° |
| 2026-04-30 19:27 | 49.94015 | 9.69832 | 30374 ft | 475 kts | 317° |
| 2026-04-30 19:28 | 50.00754 | 9.58605 | 30356 ft | 476 kts | 317° |
| 2026-04-30 19:29 | 50.07981 | 9.41431 | 30369 ft | 488 kts | 289° |
| 2026-04-30 19:30 | 50.11573 | 9.21047 | 30361 ft | 488 kts | 288° |
| 2026-04-30 19:31 | 50.15133 | 9.00638 | 30352 ft | 487 kts | 287° |
| 2026-04-30 19:31 | 50.17784 | 8.85258 | 30345 ft | 487 kts | 287° |
| 2026-04-30 19:32 | 50.19532 | 8.75043 | 30351 ft | 487 kts | 287° |
| 2026-04-30 19:32 | 50.21261 | 8.64887 | 30350 ft | 487 kts | 287° |
| 2026-04-30 19:33 | 50.22992 | 8.54654 | 30346 ft | 487 kts | 287° |
| 2026-04-30 19:33 | 50.24713 | 8.44420 | 30347 ft | 488 kts | 287° |
| 2026-04-30 19:34 | 50.26427 | 8.34166 | 30355 ft | 488 kts | 287° |
| 2026-04-30 19:35 | 50.28981 | 8.18774 | 30358 ft | 488 kts | 286° |
| 2026-04-30 19:35 | 50.30671 | 8.08507 | 30343 ft | 488 kts | 286° |
| 2026-04-30 19:36 | 50.32353 | 7.98230 | 30343 ft | 488 kts | 286° |
| 2026-04-30 19:36 | 50.34860 | 7.82796 | 30337 ft | 486 kts | 286° |
| 2026-04-30 19:37 | 50.36509 | 7.72562 | 30347 ft | 485 kts | 285° |
| 2026-04-30 19:37 | 50.38151 | 7.62312 | 30343 ft | 485 kts | 285° |
| 2026-04-30 19:38 | 50.39785 | 7.52047 | 30340 ft | 485 kts | 285° |
| 2026-04-30 19:38 | 50.41409 | 7.41786 | 30339 ft | 484 kts | 285° |
| 2026-04-30 19:39 | 50.43022 | 7.31527 | 30333 ft | 485 kts | 285° |
| 2026-04-30 19:39 | 50.44365 | 7.22932 | 30333 ft | 485 kts | 285° |
| 2026-04-30 19:40 | 50.45952 | 7.12725 | 30333 ft | 485 kts | 285° |
| 2026-04-30 19:40 | 50.47539 | 7.02445 | 30332 ft | 485 kts | 285° |
| 2026-04-30 19:41 | 50.49119 | 6.92158 | 30333 ft | 485 kts | 284° |
| 2026-04-30 19:41 | 50.50726 | 6.81870 | 30329 ft | 484 kts | 288° |
| 2026-04-30 19:42 | 50.53096 | 6.71978 | 30330 ft | 484 kts | 292° |
| 2026-04-30 19:42 | 50.55544 | 6.62122 | 30317 ft | 484 kts | 292° |
| 2026-04-30 19:43 | 50.57975 | 6.52248 | 30317 ft | 484 kts | 292° |
| 2026-04-30 19:44 | 50.61605 | 6.37373 | 30310 ft | 486 kts | 291° |
| 2026-04-30 19:44 | 50.64019 | 6.27420 | 30299 ft | 487 kts | 292° |
| 2026-04-30 19:45 | 50.66430 | 6.17433 | 30298 ft | 488 kts | 291° |
| 2026-04-30 19:45 | 50.68825 | 6.07467 | 30292 ft | 487 kts | 291° |
| 2026-04-30 19:46 | 50.71213 | 5.97486 | 30296 ft | 486 kts | 291° |
| 2026-04-30 19:46 | 50.73590 | 5.87503 | 30295 ft | 484 kts | 291° |
| 2026-04-30 19:47 | 50.75947 | 5.77560 | 30294 ft | 484 kts | 291° |
| 2026-04-30 19:47 | 50.78293 | 5.67620 | 30293 ft | 484 kts | 291° |
| 2026-04-30 19:48 | 50.80645 | 5.57609 | 30291 ft | 488 kts | 290° |
| 2026-04-30 19:48 | 50.82995 | 5.47557 | 30291 ft | 487 kts | 290° |
| 2026-04-30 19:49 | 50.85334 | 5.37506 | 30289 ft | 487 kts | 290° |
| 2026-04-30 19:49 | 50.88827 | 5.22407 | 30285 ft | 487 kts | 290° |
| 2026-04-30 19:50 | 50.91148 | 5.12310 | 30283 ft | 487 kts | 290° |
| 2026-04-30 19:50 | 50.93459 | 5.02215 | 30285 ft | 487 kts | 290° |
| 2026-04-30 19:51 | 50.95761 | 4.92109 | 30287 ft | 487 kts | 289° |
| 2026-04-30 19:51 | 50.98056 | 4.81987 | 30288 ft | 487 kts | 289° |
| 2026-04-30 19:52 | 51.00341 | 4.71858 | 30288 ft | 487 kts | 289° |
| 2026-04-30 19:52 | 51.02624 | 4.61695 | 30269 ft | 489 kts | 289° |
| 2026-04-30 19:53 | 51.04899 | 4.51513 | 30290 ft | 489 kts | 289° |
| 2026-04-30 19:53 | 51.07163 | 4.41327 | 30292 ft | 489 kts | 289° |
| 2026-04-30 19:54 | 51.09402 | 4.31210 | 30288 ft | 489 kts | 289° |
| 2026-04-30 19:54 | 51.11651 | 4.20996 | 30286 ft | 489 kts | 289° |
| 2026-04-30 19:55 | 51.13891 | 4.10776 | 30281 ft | 488 kts | 289° |
| 2026-04-30 19:55 | 51.16119 | 4.00556 | 30275 ft | 489 kts | 288° |
| 2026-04-30 19:56 | 51.18339 | 3.90321 | 30264 ft | 489 kts | 288° |
| 2026-04-30 19:56 | 51.20551 | 3.80075 | 30268 ft | 489 kts | 288° |
| 2026-04-30 19:57 | 51.22764 | 3.69790 | 30256 ft | 490 kts | 288° |
| 2026-04-30 19:57 | 51.25741 | 3.60013 | 30250 ft | 492 kts | 300° |
| 2026-04-30 19:58 | 51.29232 | 3.50647 | 30248 ft | 489 kts | 300° |
| 2026-04-30 19:58 | 51.32694 | 3.41286 | 30247 ft | 489 kts | 300° |
| 2026-04-30 19:59 | 51.35754 | 3.31599 | 30249 ft | 489 kts | 289° |
| 2026-04-30 19:59 | 51.38125 | 3.21541 | 30243 ft | 475 kts | 290° |
| 2026-04-30 20:00 | 51.39304 | 3.16585 | 30246 ft | 478 kts | 289° |
| 2026-04-30 20:00 | 51.41663 | 3.06618 | 30249 ft | 478 kts | 289° |
| 2026-04-30 20:01 | 51.45126 | 2.91863 | 30244 ft | 478 kts | 289° |
| 2026-04-30 20:01 | 51.47458 | 2.81868 | 30239 ft | 480 kts | 289° |
| 2026-04-30 20:02 | 51.50946 | 2.66826 | 30238 ft | 479 kts | 289° |
| 2026-04-30 20:03 | 51.54415 | 2.51765 | 30237 ft | 479 kts | 289° |
| 2026-04-30 20:03 | 51.56706 | 2.41761 | 30239 ft | 476 kts | 289° |
| 2026-04-30 20:04 | 51.58994 | 2.31732 | 30235 ft | 478 kts | 288° |
| 2026-04-30 20:05 | 51.62409 | 2.16663 | 30239 ft | 478 kts | 288° |
| 2026-04-30 20:05 | 51.65788 | 2.01643 | 30239 ft | 478 kts | 288° |
| 2026-04-30 20:06 | 51.68042 | 1.91563 | 30247 ft | 479 kts | 288° |
| 2026-04-30 20:06 | 51.70294 | 1.81442 | 30244 ft | 480 kts | 288° |
| 2026-04-30 20:07 | 51.72537 | 1.71313 | 30242 ft | 480 kts | 288° |
| 2026-04-30 20:07 | 51.74250 | 1.60998 | 29985 ft | 470 kts | 274° |
| 2026-04-30 20:08 | 51.74394 | 1.55853 | 29423 ft | 451 kts | 265° |
| 2026-04-30 20:08 | 51.74121 | 1.50892 | 28704 ft | 438 kts | 261° |
| 2026-04-30 20:08 | 51.73796 | 1.46056 | 28007 ft | 430 kts | 261° |
| 2026-04-30 20:08 | 51.73485 | 1.41287 | 27338 ft | 428 kts | 261° |
| 2026-04-30 20:09 | 51.73173 | 1.36514 | 26674 ft | 426 kts | 261° |
| 2026-04-30 20:09 | 51.72864 | 1.31795 | 25961 ft | 422 kts | 261° |
| 2026-04-30 20:09 | 51.72251 | 1.22500 | 24522 ft | 411 kts | 261° |
| 2026-04-30 20:10 | 51.71641 | 1.13395 | 23012 ft | 404 kts | 261° |
| 2026-04-30 20:10 | 51.71339 | 1.08940 | 22222 ft | 397 kts | 261° |
| 2026-04-30 20:10 | 51.71041 | 1.04551 | 21451 ft | 391 kts | 261° |
| 2026-04-30 20:11 | 51.70449 | 0.95914 | 19963 ft | 384 kts | 261° |
| 2026-04-30 20:11 | 51.70156 | 0.91673 | 19246 ft | 378 kts | 261° |
| 2026-04-30 20:11 | 51.69865 | 0.87486 | 18543 ft | 372 kts | 261° |
| 2026-04-30 20:12 | 51.69293 | 0.79305 | 16983 ft | 363 kts | 261° |
| 2026-04-30 20:12 | 51.69010 | 0.75298 | 16224 ft | 358 kts | 261° |
| 2026-04-30 20:12 | 51.68730 | 0.71331 | 15484 ft | 354 kts | 261° |
| 2026-04-30 20:13 | 51.68450 | 0.67403 | 14768 ft | 351 kts | 260° |
| 2026-04-30 20:13 | 51.68172 | 0.63523 | 14063 ft | 348 kts | 260° |
| 2026-04-30 20:13 | 51.67895 | 0.59671 | 13279 ft | 344 kts | 260° |
| 2026-04-30 20:13 | 51.67620 | 0.55858 | 12520 ft | 341 kts | 260° |
| 2026-04-30 20:14 | 51.67345 | 0.52078 | 11789 ft | 338 kts | 260° |
| 2026-04-30 20:14 | 51.67075 | 0.48350 | 11156 ft | 332 kts | 259° |
| 2026-04-30 20:14 | 51.66807 | 0.44692 | 10572 ft | 326 kts | 259° |
| 2026-04-30 20:14 | 51.66549 | 0.41151 | 10309 ft | 308 kts | 259° |
| 2026-04-30 20:15 | 51.66307 | 0.37822 | 10224 ft | 297 kts | 259° |
| 2026-04-30 20:15 | 51.66061 | 0.34539 | 10223 ft | 300 kts | 259° |
| 2026-04-30 20:15 | 51.65809 | 0.31200 | 10205 ft | 302 kts | 259° |
| 2026-04-30 20:15 | 51.65557 | 0.27852 | 9909 ft | 299 kts | 259° |
| 2026-04-30 20:16 | 51.65309 | 0.24549 | 9389 ft | 294 kts | 259° |
| 2026-04-30 20:16 | 51.65066 | 0.21312 | 8880 ft | 291 kts | 259° |
| 2026-04-30 20:16 | 51.64821 | 0.18077 | 8422 ft | 288 kts | 260° |
| 2026-04-30 20:16 | 51.64580 | 0.14892 | 8254 ft | 287 kts | 260° |
| 2026-04-30 20:17 | 51.64379 | 0.11674 | 8215 ft | 290 kts | 264° |
| 2026-04-30 20:17 | 51.64313 | 0.08412 | 8211 ft | 292 kts | 266° |
| 2026-04-30 20:17 | 51.64274 | 0.05164 | 8214 ft | 290 kts | 266° |
| 2026-04-30 20:17 | 51.64237 | 0.01912 | 8215 ft | 290 kts | 266° |
| 2026-04-30 20:18 | 51.64196 | -0.01329 | 8256 ft | 290 kts | 266° |
| 2026-04-30 20:18 | 51.64155 | -0.04568 | 8252 ft | 289 kts | 266° |
| 2026-04-30 20:18 | 51.64114 | -0.07796 | 8251 ft | 289 kts | 266° |
| 2026-04-30 20:18 | 51.64074 | -0.11039 | 8036 ft | 290 kts | 266° |
| 2026-04-30 20:19 | 51.64028 | -0.14289 | 7626 ft | 290 kts | 266° |
| 2026-04-30 20:19 | 51.63997 | -0.16436 | 7414 ft | 288 kts | 266° |
| 2026-04-30 20:19 | 51.63940 | -0.20653 | 7274 ft | 284 kts | 266° |
| 2026-04-30 20:19 | 51.63894 | -0.23848 | 7266 ft | 285 kts | 266° |
| 2026-04-30 20:20 | 51.63847 | -0.27026 | 7266 ft | 284 kts | 266° |
| 2026-04-30 20:20 | 51.63800 | -0.30202 | 7265 ft | 284 kts | 266° |
| 2026-04-30 20:20 | 51.63749 | -0.33380 | 7266 ft | 284 kts | 266° |
| 2026-04-30 20:20 | 51.63700 | -0.36560 | 7266 ft | 284 kts | 266° |
| 2026-04-30 20:21 | 51.63652 | -0.39738 | 7184 ft | 284 kts | 266° |
| 2026-04-30 20:21 | 51.63605 | -0.42926 | 7184 ft | 284 kts | 266° |
| 2026-04-30 20:21 | 51.63558 | -0.46101 | 7184 ft | 283 kts | 266° |
| 2026-04-30 20:21 | 51.63508 | -0.49274 | 7172 ft | 284 kts | 265° |
| 2026-04-30 20:22 | 51.63460 | -0.52449 | 7124 ft | 284 kts | 266° |
| 2026-04-30 20:22 | 51.63409 | -0.55627 | 7055 ft | 283 kts | 265° |
| 2026-04-30 20:22 | 51.63359 | -0.58783 | 7007 ft | 282 kts | 265° |
| 2026-04-30 20:22 | 51.63283 | -0.61943 | 6998 ft | 281 kts | 259° |
| 2026-04-30 20:23 | 51.62638 | -0.64852 | 7005 ft | 276 kts | 237° |
| 2026-04-30 20:23 | 51.61656 | -0.67465 | 7000 ft | 267 kts | 236° |
| 2026-04-30 20:23 | 51.60704 | -0.69985 | 7001 ft | 264 kts | 236° |
| 2026-04-30 20:23 | 51.59745 | -0.72512 | 7002 ft | 265 kts | 236° |
| 2026-04-30 20:24 | 51.58798 | -0.75014 | 7000 ft | 256 kts | 236° |
| 2026-04-30 20:24 | 51.57906 | -0.77380 | 6883 ft | 247 kts | 236° |
| 2026-04-30 20:24 | 51.57310 | -0.78966 | 6624 ft | 245 kts | 236° |
| 2026-04-30 20:24 | 51.56139 | -0.82062 | 5963 ft | 244 kts | 236° |
| 2026-04-30 20:25 | 51.54407 | -0.86662 | 5165 ft | 235 kts | 236° |
| 2026-04-30 20:25 | 51.53593 | -0.88840 | 5026 ft | 219 kts | 236° |
| 2026-04-30 20:26 | 51.51771 | -0.91881 | 5024 ft | 184 kts | 188° |
| 2026-04-30 20:26 | 51.49653 | -0.92045 | 4993 ft | 180 kts | 170° |
| 2026-04-30 20:26 | 51.48562 | -0.91126 | 5012 ft | 184 kts | 132° |
| 2026-04-30 20:27 | 51.47623 | -0.87301 | 4832 ft | 193 kts | 98° |
| 2026-04-30 20:27 | 51.47583 | -0.83102 | 4286 ft | 183 kts | 95° |
| 2026-04-30 20:28 | 51.47594 | -0.79044 | 3807 ft | 178 kts | 95° |
| 2026-04-30 20:28 | 51.47607 | -0.75099 | 3339 ft | 173 kts | 96° |
| 2026-04-30 20:29 | 51.47623 | -0.71462 | 2919 ft | 149 kts | 96° |
| 2026-04-30 20:30 | 51.47639 | -0.66545 | 2323 ft | 147 kts | 96° |
| 2026-04-30 20:30 | 51.47662 | -0.61695 | 1750 ft | 143 kts | 95° |
| 2026-04-30 20:31 | 51.47688 | -0.56974 | 1164 ft | 125 kts | 93° |
| 2026-04-30 20:32 | 51.47693 | -0.53046 | 604 ft | 117 kts | 90° |
| 2026-04-30 20:32 | 51.47728 | -0.50428 | 328 ft | 115 kts | 88° |
| 2026-04-30 20:33 | 51.47740 | -0.49123 | 203 ft | 121 kts | 88° |
| 2026-04-30 20:33 | 51.47761 | -0.46851 | 94 ft | 60 kts | 89° |
| 2026-04-30 20:33 | 51.47758 | -0.46373 | 95 ft | 39 kts | 91° |
| 2026-04-30 20:34 | 51.47621 | -0.46061 | 87 ft | 9 kts | 162° |
| 2026-04-30 20:34 | 51.47612 | -0.46058 | 88 ft | 2 kts | 168° |
| 2026-04-30 20:35 | 51.47594 | -0.46061 | 88 ft | 3 kts | 194° |
| 2026-04-30 20:35 | 51.47569 | -0.46072 | 93 ft | 4 kts | 195° |
| 2026-04-30 20:35 | 51.47519 | -0.46004 | 91 ft | 8 kts | 95° |
| 2026-04-30 20:36 | 51.47518 | -0.45880 | 88 ft | 14 kts | 92° |
| 2026-04-30 20:36 | 51.47512 | -0.45708 | 91 ft | 16 kts | 93° |
| 2026-04-30 20:36 | 51.47505 | -0.45292 | 90 ft | 22 kts | 90° |
| 2026-04-30 20:37 | 51.47505 | -0.45056 | 94 ft | 21 kts | 89° |
| 2026-04-30 20:37 | 51.47508 | -0.44817 | 92 ft | 20 kts | 89° |
| 2026-04-30 20:37 | 51.47503 | -0.44615 | 91 ft | 17 kts | 111° |
| 2026-04-30 20:37 | 51.47396 | -0.44559 | 87 ft | 20 kts | 178° |
| 2026-04-30 20:38 | 51.47246 | -0.44551 | 89 ft | 23 kts | 178° |
| 2026-04-30 20:38 | 51.47107 | -0.44543 | 87 ft | 20 kts | 178° |
| 2026-04-30 20:38 | 51.46972 | -0.44537 | 87 ft | 20 kts | 180° |
| 2026-04-30 20:39 | 51.46858 | -0.44671 | 92 ft | 10 kts | 264° |
| 2026-04-30 20:39 | 51.46857 | -0.44684 | 89 ft | 0 kts | 264° |